Turks and Caicos Islands Weather

[source: ADDS]
METAR
MBPV 201000Z 2012/2212 06005KT 9999 FEW020 PROB30 TEMPO 2100/2109 9000 SHRA SCT015CB BKN050 BECMG 2104/2106 08015KT MBGT 201000Z 2012/2112 06005KT 9999 FEW020 PROB30 TEMPO 2100/2109 9000 SHRA SCT015CB BKN050 BECMG 2104/2106 08015KT TAF
MBPV 201000Z 2012/2212 06005KT 9999 FEW020 PROB30 TEMPO 2100/2109 9000 SHRA SCT015CB BKN050 BECMG 2104/2106 08015KT =
MBGT 201000Z 2012/2112 06005KT 9999 FEW020 PROB30 TEMPO 2100/2109 9000 SHRA SCT015CB BKN050 BECMG 2104/2106 08015KT =
SR / SS: 10:47 / 22:20 UTC (MBPV 2014-10-20)
E-mail Print PDF
Weather